Time;durP1;ratioP1;P1;durP2;ratioP2;P2;SDS_P1;SDS_P2;PMS_P1;PMS_P2;Temp;Humidity;BMP_temperature;BMP_pressure;BME280_temperature;BME280_humidity;BME280_pressure;Samples;Min_cycle;Max_cycle;Signal;HPM_P1;HPM_P2
2022/06/27 10:39:52;;;;;;;1.50;1.40;;;;;;;21.67;100.00;99067.84;5104461;27;20166;-77
2022/06/27 10:42:54;;;;;;;1.42;1.33;;;;;;;21.59;95.39;99070.22;5106919;28;20043;-77
2022/06/27 10:45:25;;;;;;;1.85;1.30;;;;;;;21.18;96.17;99043.75;5092556;28;20047;-78
2022/06/27 10:47:53;;;;;;;2.75;1.38;;;;;;;21.33;99.67;99067.13;5100981;28;20063;-78
2022/06/27 10:50:21;;;;;;;3.35;1.35;;;;;;;21.36;99.41;99059.19;5100961;28;20048;-78
2022/06/27 10:52:49;;;;;;;1.40;1.23;;;;;;;21.48;100.00;99059.03;5096933;28;20574;-78
2022/06/27 10:55:24;;;;;;;4.25;1.23;;;;;;;21.71;96.06;99065.41;5106103;28;20075;-77
2022/06/27 10:57:51;;;;;;;1.10;1.00;;;;;;;22.16;91.59;99061.41;5109109;28;20055;-78
2022/06/27 11:00:48;;;;;;;2.40;1.40;;;;;;;23.05;89.50;99064.53;5106877;28;20422;-78
2022/06/27 11:03:25;;;;;;;2.15;0.88;;;;;;;22.83;85.52;99064.66;5098258;28;20079;-77
2022/06/27 11:06:00;;;;;;;1.38;1.13;;;;;;;22.89;85.38;99065.53;5094281;28;20075;-77
2022/06/27 11:08:27;;;;;;;6.55;1.30;;;;;;;22.78;83.63;99073.78;5088635;28;20059;-77
2022/06/27 11:10:56;;;;;;;2.42;1.33;;;;;;;22.53;85.32;99066.13;5098944;28;20109;-78
2022/06/27 11:13:39;;;;;;;1.75;1.38;;;;;;;22.70;88.28;99059.59;5099806;28;20049;-77
2022/06/27 11:16:07;;;;;;;2.03;1.25;;;;;;;22.24;84.94;99057.31;5106272;28;20051;-79
2022/06/27 11:18:41;;;;;;;1.88;1.27;;;;;;;22.35;82.23;99074.88;5107420;28;20047;-78
2022/06/27 11:21:09;;;;;;;2.15;1.25;;;;;;;22.36;86.67;99077.38;5109198;28;20072;-77
2022/06/27 11:23:48;;;;;;;1.70;1.20;;;;;;;22.40;85.71;99083.19;5100013;28;20051;-77
2022/06/27 11:26:16;;;;;;;3.45;1.17;;;;;;;22.64;87.19;99064.25;5094777;28;20251;-78
2022/06/27 11:34:13;;;;;;;5.13;1.10;;;;;;;22.90;76.83;99089.38;5105338;28;20113;-78
2022/06/27 11:36:40;;;;;;;5.65;1.20;;;;;;;22.42;79.51;99078.25;5109038;28;20063;-76
2022/06/27 11:39:07;;;;;;;1.48;1.23;;;;;;;22.08;81.21;99084.84;5104383;28;20045;-79
2022/06/27 11:41:39;;;;;;;4.00;2.00;;;;;;;21.78;83.19;99070.72;5104236;28;20062;-78
2022/06/27 11:44:07;;;;;;;3.05;1.90;;;;;;;21.83;85.30;99076.28;5100101;28;20494;-78
2022/06/27 11:46:35;;;;;;;3.70;2.20;;;;;;;21.96;83.97;99092.47;5105118;28;20119;-79
2022/06/27 11:49:06;;;;;;;2.00;1.50;;;;;;;22.25;84.08;99092.19;5101393;28;20402;-78
2022/06/27 11:51:35;;;;;;;2.28;1.63;;;;;;;22.60;78.70;99083.38;5092174;28;20059;-78
2022/06/27 11:54:05;;;;;;;1.60;1.50;;;;;;;22.81;75.20;99083.50;5094165;28;20048;-79
2022/06/27 11:56:35;;;;;;;1.70;1.55;;;;;;;22.92;76.76;99095.50;5095038;28;20048;-77
2022/06/27 11:59:05;;;;;;;2.55;1.58;;;;;;;23.15;74.34;99085.94;5093801;28;20126;-78
2022/06/27 12:01:32;;;;;;;2.50;1.63;;;;;;;22.90;75.49;99092.13;5093523;28;20450;-79
2022/06/27 12:04:16;;;;;;;2.72;1.50;;;;;;;23.08;72.47;99066.75;5090983;28;20044;-78
2022/06/27 12:06:47;;;;;;;2.67;1.38;;;;;;;22.73;70.71;99082.09;5095203;28;20044;-78
2022/06/27 12:09:14;;;;;;;2.30;1.42;;;;;;;22.97;70.74;99088.06;5087011;28;20047;-77
2022/06/27 12:11:51;;;;;;;2.05;1.30;;;;;;;22.95;71.32;99093.00;5087021;28;20454;-76
2022/06/27 12:14:19;;;;;;;1.73;1.30;;;;;;;22.83;73.64;99094.34;5092170;28;20080;-76
2022/06/27 12:16:47;;;;;;;1.48;1.30;;;;;;;22.46;73.90;99096.00;5088723;28;20040;-77
2022/06/27 12:19:14;;;;;;;1.52;1.20;;;;;;;22.12;75.99;99101.78;5091653;28;20055;-78
2022/06/27 12:21:41;;;;;;;2.45;1.60;;;;;;;22.12;77.22;99110.09;5086703;28;20090;-79
2022/06/27 12:24:08;;;;;;;3.90;1.83;;;;;;;21.99;77.00;99113.28;5092105;28;20052;-77
2022/06/27 12:26:35;;;;;;;2.40;1.90;;;;;;;21.87;77.33;99103.19;5084522;28;20051;-78
2022/06/27 12:29:02;;;;;;;2.40;2.00;;;;;;;21.96;79.86;99106.31;5088294;28;20509;-76
2022/06/27 12:31:29;;;;;;;2.25;1.80;;;;;;;21.99;79.46;99100.25;5092874;28;20052;-77
2022/06/27 12:33:56;;;;;;;3.75;2.22;;;;;;;21.95;80.12;99084.44;5072076;28;20049;-77
2022/06/27 12:36:23;;;;;;;2.25;1.92;;;;;;;21.90;79.92;99099.91;5076424;28;20044;-77
2022/06/27 12:38:49;;;;;;;4.47;2.28;;;;;;;21.91;79.68;99117.34;5089724;28;20044;-78
2022/06/27 12:41:16;;;;;;;3.55;2.10;;;;;;;21.78;80.13;99110.28;5090855;28;20052;-79
2022/06/27 12:43:44;;;;;;;2.25;1.80;;;;;;;21.86;81.71;99108.97;5086949;28;20393;-76
2022/06/27 12:46:11;;;;;;;2.22;2.00;;;;;;;21.98;80.16;99108.81;5084451;28;20403;-77
2022/06/27 12:48:40;;;;;;;2.85;1.65;;;;;;;21.99;78.27;99103.03;5080225;28;20051;-78
2022/06/27 12:51:06;;;;;;;3.35;1.80;;;;;;;21.99;79.29;99096.66;5084055;28;20132;-77
2022/06/27 12:53:33;;;;;;;5.88;2.47;;;;;;;22.12;83.27;99106.50;5085973;28;20048;-78
2022/06/27 12:56:02;;;;;;;2.33;2.08;;;;;;;22.27;78.26;99110.22;5093948;28;20052;-77
2022/06/27 12:58:28;;;;;;;2.70;1.65;;;;;;;22.50;75.60;99097.13;5082332;28;20041;-77
2022/06/27 13:00:55;;;;;;;2.78;2.28;;;;;;;22.48;74.64;99098.50;5090059;28;20593;-78
2022/06/27 13:03:21;;;;;;;4.40;2.15;;;;;;;22.42;75.13;99092.94;5091307;28;20464;-78
2022/06/27 13:05:49;;;;;;;1.77;1.48;;;;;;;22.49;75.10;99083.56;5093620;28;20058;-78
2022/06/27 13:08:16;;;;;;;3.88;1.67;;;;;;;22.83;73.68;99106.25;5093564;28;20139;-77
2022/06/27 13:10:43;;;;;;;3.58;2.05;;;;;;;22.63;72.99;99123.56;5083888;28;20059;-78
2022/06/27 13:13:10;;;;;;;2.90;1.80;;;;;;;22.83;74.02;99124.81;5086680;28;20062;-77
2022/06/27 13:15:37;;;;;;;2.55;1.42;;;;;;;22.49;73.48;99119.56;5093569;28;20050;-77
2022/06/27 13:18:04;;;;;;;3.97;1.67;;;;;;;22.38;73.63;99124.19;5088860;28;20629;-77
2022/06/27 13:20:31;;;;;;;2.50;1.67;;;;;;;22.45;77.70;99122.03;5085818;28;20041;-77
2022/06/27 13:22:59;;;;;;;2.38;1.73;;;;;;;22.43;75.26;99127.84;5071840;28;20049;-77
2022/06/27 13:25:26;;;;;;;2.45;1.52;;;;;;;22.19;76.36;99120.94;5070676;28;20492;-77
2022/06/27 13:27:53;;;;;;;1.80;1.52;;;;;;;22.27;75.25;99124.06;5070022;28;21638;-77
2022/06/27 13:30:19;;;;;;;2.90;1.63;;;;;;;22.36;73.27;99120.84;5089460;28;20059;-76
2022/06/27 13:32:46;;;;;;;1.98;1.35;;;;;;;22.24;74.17;99127.34;5090439;28;20044;-76
2022/06/27 13:35:12;;;;;;;1.55;1.45;;;;;;;22.38;75.37;99133.31;5091693;28;20052;-76
2022/06/27 13:37:39;;;;;;;2.72;1.33;;;;;;;22.48;72.11;99138.13;5089441;28;20055;-76
2022/06/27 13:40:09;;;;;;;1.92;1.35;;;;;;;22.45;71.68;99113.72;5084494;28;20051;-76
2022/06/27 13:42:36;;;;;;;;;;;;;;;22.69;73.29;99144.66;5091074;28;20055;-77
2022/06/27 13:45:02;;;;;;;2.65;1.42;;;;;;;22.67;71.73;99137.72;5091569;28;20279;-77
2022/06/27 13:47:29;;;;;;;3.05;1.80;;;;;;;22.69;71.09;99141.91;5082927;28;20052;-78
2022/06/27 13:49:55;;;;;;;3.38;1.88;;;;;;;22.68;71.46;99140.22;5086925;28;20059;-77
2022/06/27 13:52:22;;;;;;;5.22;2.08;;;;;;;22.61;71.83;99131.28;5087429;28;20367;-77
2022/06/27 13:54:49;;;;;;;2.67;1.50;;;;;;;22.64;71.54;99139.06;5070966;28;20052;-77
2022/06/27 13:57:17;;;;;;;2.42;1.88;;;;;;;22.66;70.18;99145.19;5071833;28;20072;-78
2022/06/27 13:59:44;;;;;;;6.15;2.28;;;;;;;22.73;68.46;99143.03;5088107;28;20048;-76
2022/06/27 14:02:10;;;;;;;4.45;2.45;;;;;;;22.71;68.42;99144.41;5088741;28;20406;-77
2022/06/27 14:04:37;;;;;;;2.75;2.20;;;;;;;22.65;69.01;99148.25;5085240;28;20071;-78
2022/06/27 14:09:48;;;;;;;5.88;2.20;;;;;;;22.72;70.75;99141.38;5090318;28;20486;-78
2022/06/27 14:12:16;;;;;;;2.28;2.08;;;;;;;22.81;68.83;99144.47;5077234;28;20044;-78
2022/06/27 14:14:43;;;;;;;6.25;2.55;;;;;;;22.91;68.20;99133.47;5089086;28;20060;-78
2022/06/27 14:17:09;;;;;;;9.90;2.85;;;;;;;22.65;69.79;99145.47;5076625;28;20545;-78
2022/06/27 14:19:36;;;;;;;20.02;4.40;;;;;;;22.77;73.49;99148.88;5089605;28;20494;-77
2022/06/27 14:22:03;;;;;;;4.70;2.67;;;;;;;22.73;73.01;99142.19;5090423;28;20048;-78
2022/06/27 14:24:30;;;;;;;6.47;2.70;;;;;;;22.63;71.67;99151.28;5090860;28;20105;-78
2022/06/27 14:26:57;;;;;;;13.57;4.05;;;;;;;22.61;75.09;99159.00;5081554;28;20506;-77
2022/06/27 14:29:25;;;;;;;6.35;3.63;;;;;;;22.17;75.60;99153.59;5088365;28;20040;-78
2022/06/27 14:31:52;;;;;;;5.78;2.45;;;;;;;22.09;79.61;99135.53;5090413;28;20052;-78
2022/06/27 14:34:19;;;;;;;5.47;2.83;;;;;;;22.21;79.76;99149.22;5084485;28;20052;-78
2022/06/27 14:36:46;;;;;;;6.38;2.63;;;;;;;22.23;78.31;99141.47;5088942;28;20059;-79
2022/06/27 14:39:13;;;;;;;4.55;3.10;;;;;;;22.34;85.35;99159.91;5089929;28;20052;-78
2022/06/27 14:41:41;;;;;;;4.78;3.13;;;;;;;21.83;83.51;99123.34;5090307;28;20047;-78
2022/06/27 14:44:07;;;;;;;3.63;3.00;;;;;;;22.01;87.00;99144.28;5089821;28;20052;-77
2022/06/27 14:46:35;;;;;;;4.65;3.90;;;;;;;21.74;87.81;99123.81;5084249;28;20044;-77
2022/06/27 14:49:02;;;;;;;4.88;2.92;;;;;;;21.78;90.65;99150.97;5089678;28;20040;-77
2022/06/27 14:51:29;;;;;;;9.70;3.35;;;;;;;21.80;83.46;99152.38;5089306;28;20052;-77
2022/06/27 14:53:56;;;;;;;12.23;3.70;;;;;;;21.82;91.28;99133.56;5089570;28;20131;-77
2022/06/27 14:56:22;;;;;;;25.13;5.15;;;;;;;22.19;95.41;99145.84;5086566;28;20050;-77
2022/06/27 14:58:49;;;;;;;4.97;3.13;;;;;;;22.36;99.19;99148.56;5083403;28;20052;-77
2022/06/27 15:01:15;;;;;;;4.45;3.33;;;;;;;22.43;88.76;99151.91;5084926;28;20044;-77
2022/06/27 15:03:43;;;;;;;4.75;3.53;;;;;;;22.26;89.39;99141.75;5074441;28;20494;-77
2022/06/27 15:06:10;;;;;;;5.50;3.20;;;;;;;22.27;90.67;99151.75;5079638;28;20055;-77
2022/06/27 15:08:41;;;;;;;4.20;3.10;;;;;;;22.00;86.02;99120.47;5090194;28;20048;-78
2022/06/27 15:13:51;;;;;;;6.55;3.83;;;;;;;22.12;91.57;99154.38;5088854;28;20055;-76
2022/06/27 15:16:18;;;;;;;4.40;3.45;;;;;;;22.02;94.06;99130.19;5089313;28;20052;-77
2022/06/27 15:18:46;;;;;;;4.88;3.72;;;;;;;21.86;98.31;99128.34;5089364;28;20403;-77
2022/06/27 15:21:12;;;;;;;7.68;3.55;;;;;;;21.84;100.00;99125.84;5090156;28;20484;-77
2022/06/27 15:23:39;;;;;;;4.60;4.10;;;;;;;21.48;94.91;99106.06;5084655;28;20063;-77
2022/06/27 15:26:05;;;;;;;4.28;3.40;;;;;;;21.48;98.25;99083.06;5091360;28;20052;-77
2022/06/27 15:28:32;;;;;;;10.85;4.13;;;;;;;21.73;100.00;99143.44;5081798;28;20423;-76
2022/06/27 15:30:59;;;;;;;5.60;4.20;;;;;;;21.70;100.00;99130.94;5093877;28;20059;-76
2022/06/27 15:33:26;;;;;;;7.47;4.50;;;;;;;21.87;100.00;99149.41;5090402;28;20560;-76
2022/06/27 15:35:54;;;;;;;4.82;4.03;;;;;;;21.57;100.00;99128.56;5093476;28;20522;-77
2022/06/27 15:38:20;;;;;;;4.00;3.53;;;;;;;21.48;99.48;99135.63;5091902;28;20052;-76
2022/06/27 15:40:48;;;;;;;4.53;3.70;;;;;;;21.45;100.00;99114.00;5093015;28;20058;-76
2022/06/27 15:43:14;;;;;;;6.82;3.85;;;;;;;21.29;98.81;99111.06;5091800;28;20051;-76
2022/06/27 15:45:41;;;;;;;7.47;4.72;;;;;;;21.48;100.00;99130.94;5093862;28;20063;-76
2022/06/27 15:48:08;;;;;;;9.38;4.50;;;;;;;21.59;100.00;99142.16;5083428;28;20134;-76
2022/06/27 15:50:35;;;;;;;5.25;4.75;;;;;;;21.70;100.00;99155.03;5092332;28;20042;-76
2022/06/27 15:53:03;;;;;;;6.70;4.88;;;;;;;21.67;100.00;99136.16;5075635;28;20102;-76
2022/06/27 15:55:29;;;;;;;5.75;4.43;;;;;;;21.43;100.00;99168.75;5092573;28;20360;-76
2022/06/27 15:57:59;;;;;;;6.22;4.15;;;;;;;21.19;100.00;99167.03;5092871;28;20064;-76
2022/06/27 16:00:25;;;;;;;;;;;;;;;21.13;100.00;99186.59;5080574;28;20121;-76
2022/06/27 16:02:52;;;;;;;5.57;3.90;;;;;;;21.16;100.00;99173.06;5091236;28;19927;-76
2022/06/27 16:05:20;;;;;;;3.75;3.38;;;;;;;20.97;100.00;99171.69;5091668;28;20047;-76
2022/06/27 16:07:47;;;;;;;6.47;3.10;;;;;;;20.77;100.00;99150.13;5089521;28;20087;-76
2022/06/27 16:10:15;;;;;;;4.10;3.05;;;;;;;20.83;100.00;99144.41;5072618;28;20056;-76
2022/06/27 16:12:42;;;;;;;2.95;2.17;;;;;;;20.68;100.00;99139.50;5087370;28;20642;-76
2022/06/27 16:15:09;;;;;;;2.10;1.90;;;;;;;20.63;100.00;99144.88;5092813;28;20055;-76
2022/06/27 16:17:36;;;;;;;2.90;1.98;;;;;;;20.66;100.00;99136.13;5093160;28;20044;-76
2022/06/27 16:20:03;;;;;;;2.65;1.88;;;;;;;20.83;100.00;99171.19;5090998;28;20505;-76
2022/06/27 16:22:29;;;;;;;2.83;2.10;;;;;;;20.63;100.00;99138.53;5084628;28;20087;-76
2022/06/27 16:24:56;;;;;;;2.30;2.10;;;;;;;20.57;100.00;99139.56;5092739;28;20048;-76
2022/06/27 16:27:24;;;;;;;3.15;2.20;;;;;;;20.44;100.00;99168.31;5092879;28;20056;-76
2022/06/27 16:29:51;;;;;;;3.28;2.22;;;;;;;20.61;100.00;99198.69;5087646;28;20060;-76
2022/06/27 16:32:16;;;;;;;4.07;2.13;;;;;;;20.44;100.00;99177.44;5091863;28;20063;-76
2022/06/27 16:34:43;;;;;;;2.60;2.10;;;;;;;20.23;100.00;99173.47;5092619;28;20043;-76
2022/06/27 16:37:10;;;;;;;5.25;2.38;;;;;;;20.40;100.00;99179.03;5091141;28;20417;-76
2022/06/27 16:39:37;;;;;;;2.92;2.20;;;;;;;20.50;100.00;99186.66;5089277;28;20044;-76
2022/06/27 16:44:49;;;;;;;4.13;2.22;;;;;;;20.31;100.00;99189.63;5092401;28;20059;-76
2022/06/27 16:47:15;;;;;;;2.25;2.05;;;;;;;20.47;100.00;99189.91;5091270;28;20491;-76
2022/06/27 16:49:42;;;;;;;2.42;1.80;;;;;;;20.28;100.00;99170.00;5086324;28;20394;-76
2022/06/27 16:52:09;;;;;;;2.85;2.10;;;;;;;20.24;100.00;99183.44;5091650;28;20054;-76
2022/06/27 16:54:36;;;;;;;2.42;2.22;;;;;;;20.27;100.00;99169.13;5091795;28;20040;-76
2022/06/27 16:57:03;;;;;;;2.10;1.88;;;;;;;20.39;100.00;99171.00;5088903;28;20044;-76
2022/06/27 16:59:29;;;;;;;2.50;2.15;;;;;;;20.23;100.00;99167.13;5090710;28;20392;-76
2022/06/27 17:01:57;;;;;;;2.70;2.15;;;;;;;20.23;100.00;99201.06;5092137;28;20048;-76
2022/06/27 17:04:24;;;;;;;2.63;2.13;;;;;;;20.33;100.00;99214.22;5091469;28;20484;-76
2022/06/27 17:06:53;;;;;;;6.35;1.95;;;;;;;20.26;100.00;99230.94;5091963;28;20060;-76
2022/06/27 17:09:20;;;;;;;4.00;2.28;;;;;;;20.32;100.00;99243.78;5091332;28;20570;-76
2022/06/27 17:11:47;;;;;;;2.47;2.08;;;;;;;20.30;100.00;99270.78;5088180;28;20048;-76
2022/06/27 17:14:14;;;;;;;2.28;1.90;;;;;;;20.13;100.00;99283.69;5091283;28;20125;-76
2022/06/27 17:16:40;;;;;;;2.92;2.25;;;;;;;19.93;100.00;99257.34;5091613;28;20048;-76
2022/06/27 17:19:08;;;;;;;2.13;1.85;;;;;;;19.96;100.00;99248.59;5080815;28;20539;-76
2022/06/27 17:21:35;;;;;;;3.03;1.90;;;;;;;19.83;100.00;99240.59;5091512;28;20051;-76
2022/06/27 17:24:01;;;;;;;3.50;1.95;;;;;;;20.13;100.00;99273.47;5091084;28;20582;-76
2022/06/27 17:26:28;;;;;;;2.55;1.90;;;;;;;20.20;100.00;99269.75;5085848;28;20466;-78
2022/06/27 17:28:54;;;;;;;3.60;2.15;;;;;;;20.18;100.00;99250.66;5090006;28;20483;-78
2022/06/27 17:31:21;;;;;;;3.58;2.17;;;;;;;20.02;100.00;99246.75;5080650;28;20045;-77
2022/06/27 17:33:47;;;;;;;2.75;2.47;;;;;;;20.02;100.00;99266.06;5079052;28;20060;-76
2022/06/27 17:36:15;;;;;;;3.72;2.75;;;;;;;20.07;100.00;99273.63;5089029;28;20058;-76
2022/06/27 17:38:42;;;;;;;4.45;3.22;;;;;;;20.04;100.00;99279.63;5091263;28;20051;-77
2022/06/27 17:41:10;;;;;;;3.03;2.03;;;;;;;20.04;100.00;99290.66;5088677;28;20048;-76
2022/06/27 17:43:36;;;;;;;3.83;2.20;;;;;;;20.20;100.00;99291.81;5073336;28;20135;-75
2022/06/27 17:46:04;;;;;;;4.85;2.10;;;;;;;20.00;100.00;99272.94;5075802;28;20058;-75
2022/06/27 17:48:31;;;;;;;3.40;1.83;;;;;;;19.91;100.00;99270.53;5088488;28;20039;-76
2022/06/27 17:51:00;;;;;;;2.75;1.92;;;;;;;20.07;100.00;99293.78;5080201;28;20174;-76
2022/06/27 17:53:28;;;;;;;4.65;2.17;;;;;;;19.80;100.00;99277.75;5080160;28;20052;-75
2022/06/27 17:55:54;;;;;;;5.78;2.70;;;;;;;20.04;100.00;99296.16;5078015;28;20059;-75
